ENLK

Details ICAO ENLK (LKN)
Name Leknes
Region Norway
Timezone Europe/Oslo (UTC+1.0)
Plans Departing 10
Arriving 16
Stats Elevation 78 ft / 24 m (AMSL)
Location 68.152613° 13.609505°
Runways 1
Magnetic Variation 5.431° E
Sunrise Unknown / Unknown
Sunset Unknown / Unknown
Advertisement - Login to hide

Runways

ID Width Length Bearing (true) Bearing (mag) Surface Threshold Offset Overrun Length
03 98 ft / 30 m 2,876 ft / 877 m 27.57° 22.14° Asphalt 125 ft / 38 m 0 ft / 0 m
21 98 ft / 30 m 2,876 ft / 877 m 207.58° 202.15° Asphalt 131 ft / 40 m 0 ft / 0 m

Map

Weather


0- 5 10 15 20 25 30 35+ Temperature / ° C

Clouds and Precipitation
Forecast for 2017-12-16 00:00 UTC. Updated 21 minutes ago

Ground ~20,000 ft ~40,000 ft Winds

METAR

ENLK 152050Z 12003KT 5000 SHSN SCT012 BKN020 00/M00 Q0994

TAF

Not found
Warning: Do not use this data for real-world aviation or navigation. No guarantee of current accuracy is given.